Time;durP1;ratioP1;P1;durP2;ratioP2;P2;SDS_P1;SDS_P2;PMS_P1;PMS_P2;Temp;Humidity;BMP_temperature;BMP_pressure;BME280_temperature;BME280_humidity;BME280_pressure;Samples;Min_cycle;Max_cycle;Signal;HPM_P1;HPM_P2
2021/08/04 00:01:42;;;;;;;19.20;5.15;;;;;;;13.78;91.47;99521.15;1763372;80;20959;-73
2021/08/04 00:04:10;;;;;;;28.17;5.67;;;;;;;13.77;91.73;99525.05;1763405;80;21104;-72
2021/08/04 00:06:38;;;;;;;23.15;5.92;;;;;;;13.76;91.69;99528.14;1763295;81;20925;-72
2021/08/04 00:09:05;;;;;;;23.65;5.30;;;;;;;13.74;91.69;99533.19;1763435;81;21448;-72
2021/08/04 00:11:33;;;;;;;15.98;6.12;;;;;;;13.71;91.64;99529.73;1763369;81;20893;-72
2021/08/04 00:14:00;;;;;;;14.23;5.37;;;;;;;13.69;91.69;99530.06;1763374;81;20873;-72
2021/08/04 00:16:27;;;;;;;18.23;5.37;;;;;;;13.67;91.42;99537.06;1763452;80;21183;-72
2021/08/04 00:18:55;;;;;;;17.02;5.95;;;;;;;13.66;91.42;99540.96;1763212;80;20924;-73
2021/08/04 00:21:21;;;;;;;16.27;5.45;;;;;;;13.61;91.54;99536.45;1763383;81;21428;-73
2021/08/04 00:23:48;;;;;;;13.28;5.97;;;;;;;13.58;91.32;99545.40;1763535;80;21432;-74
2021/08/04 00:26:14;;;;;;;15.60;5.53;;;;;;;13.56;91.27;99542.17;1766424;81;20960;-73
2021/08/04 00:28:42;;;;;;;11.97;5.15;;;;;;;13.54;91.39;99547.21;1778547;80;20928;-72
2021/08/04 00:31:08;;;;;;;15.35;5.40;;;;;;;13.52;91.74;99543.98;1778797;80;20868;-72
2021/08/04 00:33:35;;;;;;;13.75;5.62;;;;;;;13.51;91.73;99540.98;1778630;80;20975;-73
2021/08/04 00:36:02;;;;;;;9.98;5.22;;;;;;;13.49;91.75;99544.66;1778898;80;20880;-72
2021/08/04 00:38:29;;;;;;;17.32;5.80;;;;;;;13.45;91.63;99540.38;1779021;80;21407;-73
2021/08/04 00:40:55;;;;;;;15.20;5.87;;;;;;;13.41;91.73;99536.67;1778743;80;21077;-73
2021/08/04 00:43:22;;;;;;;18.32;5.78;;;;;;;13.38;91.79;99540.67;1778591;80;21030;-72
2021/08/04 00:45:49;;;;;;;19.55;6.37;;;;;;;13.35;92.00;99538.58;1778871;80;20844;-72
2021/08/04 00:48:17;;;;;;;13.95;6.08;;;;;;;13.33;92.20;99535.34;1778808;80;20920;-73
2021/08/04 00:50:44;;;;;;;16.12;7.45;;;;;;;13.29;92.39;99537.16;1778446;80;21559;-72
2021/08/04 00:53:26;;;;;;;20.55;8.08;;;;;;;13.26;92.31;99539.23;1778755;80;21076;-73
2021/08/04 00:55:55;;;;;;;15.85;7.20;;;;;;;13.24;92.50;99543.70;1778747;80;20951;-73
2021/08/04 00:58:31;;;;;;;19.12;7.05;;;;;;;13.23;92.64;99533.81;1779190;80;20837;-72
2021/08/04 01:01:08;;;;;;;16.55;7.45;;;;;;;13.23;92.55;99538.52;1778854;80;20892;-73
2021/08/04 01:03:40;;;;;;;13.30;6.72;;;;;;;13.21;92.65;99540.23;1775134;80;20892;-74
2021/08/04 01:06:11;;;;;;;15.30;7.28;;;;;;;13.19;92.66;99543.32;1778888;80;21135;-71
2021/08/04 01:08:42;;;;;;;17.85;6.92;;;;;;;13.17;92.66;99535.95;1779186;80;20908;-72
2021/08/04 01:11:10;;;;;;;15.95;7.00;;;;;;;13.15;92.62;99538.20;1750804;80;20967;-71
2021/08/04 01:13:47;;;;;;;12.25;7.17;;;;;;;13.13;92.87;99544.62;1779149;80;21443;-71
2021/08/04 01:16:32;;;;;;;16.62;7.60;;;;;;;13.11;93.02;99545.52;1779127;80;21499;-71
2021/08/04 01:19:41;;;;;;;15.03;7.12;;;;;;;13.09;92.99;99546.99;1778874;80;21403;-72
2021/08/04 01:22:43;;;;;;;13.10;7.03;;;;;;;13.05;92.88;99541.91;1778782;80;20924;-71
2021/08/04 01:25:20;;;;;;;10.73;6.87;;;;;;;13.02;92.94;99538.44;1750426;80;20860;-72
2021/08/04 01:28:15;;;;;;;12.98;6.35;;;;;;;12.99;92.98;99538.53;1778923;80;20951;-71
2021/08/04 01:30:43;;;;;;;16.07;6.35;;;;;;;12.99;93.02;99539.09;1779065;80;20912;-71
2021/08/04 01:33:09;;;;;;;12.70;6.03;;;;;;;12.95;93.21;99538.95;1726517;80;21087;-73
2021/08/04 01:35:36;;;;;;;13.43;6.25;;;;;;;12.94;93.22;99535.95;1778525;80;20940;-72
2021/08/04 01:38:03;;;;;;;15.45;6.33;;;;;;;12.92;93.12;99541.56;1778752;80;20937;-70
2021/08/04 01:40:29;;;;;;;13.62;5.28;;;;;;;12.89;93.42;99533.39;1778910;80;20923;-72
2021/08/04 01:42:56;;;;;;;10.28;5.65;;;;;;;12.88;93.71;99535.91;1778852;80;20924;-72
2021/08/04 01:45:23;;;;;;;12.13;5.53;;;;;;;12.86;93.71;99536.23;1778947;80;21180;-71
2021/08/04 01:47:50;;;;;;;13.98;5.50;;;;;;;12.83;93.55;99527.83;1778325;80;20915;-73
2021/08/04 01:50:16;;;;;;;14.10;6.03;;;;;;;12.80;93.39;99536.18;1779005;80;20915;-72
2021/08/04 01:52:43;;;;;;;13.30;6.58;;;;;;;12.80;93.44;99527.11;1778947;80;20919;-70
2021/08/04 01:55:10;;;;;;;13.05;6.37;;;;;;;12.78;93.40;99532.14;1779164;80;20880;-70
2021/08/04 01:57:40;;;;;;;13.08;5.25;;;;;;;12.77;93.48;99529.14;1779003;80;21069;-70
2021/08/04 02:00:09;;;;;;;8.78;5.22;;;;;;;12.76;93.50;99520.64;1779128;80;20954;-70
2021/08/04 02:02:42;;;;;;;10.68;5.90;;;;;;;12.75;93.59;99527.29;1779093;80;20940;-70
2021/08/04 02:05:10;;;;;;;9.58;5.80;;;;;;;12.74;93.56;99525.11;1779335;80;21413;-71
2021/08/04 02:08:00;;;;;;;12.70;6.78;;;;;;;12.73;93.49;99534.51;1779125;80;20988;-71
2021/08/04 02:10:37;;;;;;;14.47;6.40;;;;;;;12.70;93.33;99539.90;1779011;80;21200;-72
2021/08/04 02:13:22;;;;;;;11.88;6.62;;;;;;;12.68;93.77;99542.17;1770478;80;21419;-72
2021/08/04 02:15:53;;;;;;;13.83;6.53;;;;;;;12.67;93.92;99539.18;1779090;80;20861;-72
2021/08/04 02:18:20;;;;;;;12.50;6.80;;;;;;;12.65;93.80;99543.64;1778664;80;20924;-72
2021/08/04 02:20:48;;;;;;;13.35;6.37;;;;;;;12.61;93.65;99546.81;1778757;80;20983;-71
2021/08/04 02:23:19;;;;;;;19.98;6.05;;;;;;;12.58;93.47;99548.03;1779209;80;21668;-72
2021/08/04 02:26:03;;;;;;;12.60;6.67;;;;;;;12.55;93.75;99547.55;1777384;80;21051;-72
2021/08/04 02:28:33;;;;;;;14.07;7.20;;;;;;;12.55;93.86;99555.81;1771743;80;20889;-73
2021/08/04 02:31:01;;;;;;;11.33;6.55;;;;;;;12.54;93.88;99552.02;1771413;81;21423;-72
2021/08/04 02:33:28;;;;;;;17.17;7.25;;;;;;;12.55;93.98;99550.31;1771415;81;20944;-73
2021/08/04 02:35:54;;;;;;;14.13;6.50;;;;;;;12.54;94.18;99548.69;1771499;80;21132;-72
2021/08/04 02:38:21;;;;;;;14.28;6.58;;;;;;;12.53;94.25;99555.34;1771187;80;20849;-72
2021/08/04 02:40:49;;;;;;;13.13;7.12;;;;;;;12.52;94.58;99554.28;1771413;81;20882;-72
2021/08/04 02:43:16;;;;;;;12.88;7.03;;;;;;;12.51;94.55;99550.73;1771255;81;21490;-72
2021/08/04 02:45:43;;;;;;;18.92;6.50;;;;;;;12.50;94.51;99555.99;1771354;80;20904;-71
2021/08/04 02:48:11;;;;;;;16.87;7.03;;;;;;;12.50;94.52;99556.56;1771393;80;21903;-71
2021/08/04 02:50:38;;;;;;;10.08;6.20;;;;;;;12.50;94.67;99555.99;1771481;81;21389;-71
2021/08/04 02:53:05;;;;;;;15.00;6.35;;;;;;;12.52;94.92;99559.80;1770941;81;21483;-71
2021/08/04 02:55:31;;;;;;;15.32;6.75;;;;;;;12.53;94.92;99559.47;1751441;81;20912;-71
2021/08/04 02:57:58;;;;;;;18.73;7.37;;;;;;;12.54;94.77;99563.03;1772540;80;20916;-71
2021/08/04 03:00:24;;;;;;;17.62;6.40;;;;;;;12.54;94.91;99565.22;1771044;81;21125;-71
2021/08/04 03:02:51;;;;;;;16.30;6.55;;;;;;;12.55;95.20;99559.95;1771238;81;21023;-72
2021/08/04 03:05:18;;;;;;;11.08;6.62;;;;;;;12.59;95.48;99559.29;1771355;81;20960;-72
2021/08/04 03:07:45;;;;;;;11.05;6.35;;;;;;;12.60;95.67;99559.53;1771206;81;20892;-72
2021/08/04 03:10:12;;;;;;;14.40;6.97;;;;;;;12.62;95.66;99560.02;1771435;80;20900;-72
2021/08/04 03:12:41;;;;;;;12.10;6.60;;;;;;;12.63;95.67;99567.13;1771301;81;20869;-72
2021/08/04 03:15:09;;;;;;;11.43;7.00;;;;;;;12.65;95.84;99564.86;1770891;81;20963;-72
2021/08/04 03:17:38;;;;;;;15.98;6.95;;;;;;;12.68;95.87;99561.45;1771279;80;20889;-72
2021/08/04 03:20:06;;;;;;;18.52;7.00;;;;;;;12.71;96.05;99560.80;1771274;81;22001;-72
2021/08/04 03:22:33;;;;;;;14.75;6.70;;;;;;;12.77;96.15;99570.47;1770276;81;20924;-72
2021/08/04 03:25:01;;;;;;;16.55;6.53;;;;;;;12.81;96.26;99569.48;1771267;80;20881;-72
2021/08/04 03:27:29;;;;;;;13.00;7.35;;;;;;;12.85;96.41;99571.81;1771084;81;20908;-71
2021/08/04 03:29:55;;;;;;;14.75;7.53;;;;;;;12.92;96.72;99569.11;1771388;81;21004;-72
2021/08/04 03:32:22;;;;;;;13.78;6.95;;;;;;;12.99;96.97;99569.41;1771311;81;20941;-71
2021/08/04 03:34:49;;;;;;;11.18;6.60;;;;;;;13.04;96.99;99568.66;1770895;80;20873;-72
2021/08/04 03:37:15;;;;;;;14.53;7.25;;;;;;;13.11;97.07;99575.84;1771491;81;21096;-72
2021/08/04 03:39:42;;;;;;;15.05;7.35;;;;;;;13.18;97.17;99568.46;1771117;81;20904;-72
2021/08/04 03:42:09;;;;;;;26.20;10.15;;;;;;;13.26;97.34;99575.07;1771182;81;20848;-73
2021/08/04 03:44:35;;;;;;;40.52;16.95;;;;;;;13.36;97.70;99586.50;1771222;81;20932;-74
2021/08/04 03:47:03;;;;;;;29.30;11.85;;;;;;;13.50;98.01;99580.17;1771223;81;20881;-72
2021/08/04 03:49:29;;;;;;;33.88;12.20;;;;;;;13.66;98.06;99579.58;1771435;81;21134;-70
2021/08/04 03:51:56;;;;;;;28.70;10.98;;;;;;;13.78;97.87;99566.67;1760175;81;20975;-70
2021/08/04 03:54:23;;;;;;;28.62;11.90;;;;;;;13.88;97.64;99566.23;1757610;81;20933;-71
2021/08/04 03:56:50;;;;;;;34.18;11.68;;;;;;;13.98;97.62;99569.73;1760892;81;20886;-73
2021/08/04 03:59:16;;;;;;;34.80;12.98;;;;;;;14.08;97.88;99580.37;1763191;81;20945;-71
2021/08/04 04:01:42;;;;;;;30.00;12.70;;;;;;;14.19;98.14;99585.70;1761070;81;21758;-71
2021/08/04 04:04:09;;;;;;;25.75;11.57;;;;;;;14.30;98.39;99580.00;1760984;80;20937;-71
2021/08/04 04:06:35;;;;;;;23.73;11.03;;;;;;;14.42;98.59;99578.70;1760147;81;20988;-70
2021/08/04 04:09:03;;;;;;;28.23;11.90;;;;;;;14.55;98.28;99578.13;1764387;80;21019;-72
2021/08/04 04:11:30;;;;;;;29.75;12.30;;;;;;;14.71;97.84;99585.20;1762735;81;21051;-72
2021/08/04 04:13:58;;;;;;;22.45;11.73;;;;;;;14.85;97.58;99588.45;1761786;81;21052;-71
2021/08/04 04:16:25;;;;;;;31.80;11.18;;;;;;;15.00;96.82;99589.74;1763327;81;20920;-72
2021/08/04 04:18:53;;;;;;;20.60;10.90;;;;;;;15.12;95.40;99590.53;1762196;81;20913;-72
2021/08/04 04:21:20;;;;;;;23.77;10.00;;;;;;;15.26;95.11;99594.92;1757042;81;21764;-70
2021/08/04 04:23:46;;;;;;;19.82;9.73;;;;;;;15.38;94.37;99593.53;1752696;80;20976;-70
2021/08/04 04:26:14;;;;;;;23.73;10.98;;;;;;;15.50;93.05;99591.57;1745094;81;21027;-70
2021/08/04 04:28:41;;;;;;;17.25;10.60;;;;;;;15.62;92.09;99583.83;1753896;81;20889;-71
2021/08/04 04:31:08;;;;;;;20.12;8.88;;;;;;;15.76;91.41;99591.19;1740721;81;20979;-72
2021/08/04 04:33:34;;;;;;;18.50;9.60;;;;;;;15.90;90.78;99599.13;1740577;82;21466;-72
2021/08/04 04:36:03;;;;;;;17.70;9.38;;;;;;;16.02;90.41;99594.94;1740312;82;21409;-72
2021/08/04 04:38:29;;;;;;;21.95;9.15;;;;;;;16.19;89.78;99593.81;1740497;81;21119;-72
2021/08/04 04:40:56;;;;;;;29.50;9.45;;;;;;;16.32;88.61;99591.23;1740706;82;21403;-72
2021/08/04 04:43:22;;;;;;;15.98;9.20;;;;;;;16.48;87.67;99595.43;1740569;81;20937;-72
2021/08/04 04:45:49;;;;;;;17.27;8.63;;;;;;;16.63;87.00;99593.86;1740605;81;21403;-72
2021/08/04 04:48:15;;;;;;;26.10;10.88;;;;;;;16.80;86.84;99599.08;1741302;81;20991;-72
2021/08/04 04:50:42;;;;;;;36.65;12.25;;;;;;;16.95;85.73;99601.06;1740632;81;21052;-72
2021/08/04 04:53:08;;;;;;;36.98;11.38;;;;;;;17.08;84.83;99601.20;1740401;82;20888;-72
2021/08/04 04:55:35;;;;;;;25.62;9.78;;;;;;;17.24;83.89;99608.72;1741944;81;21427;-72
2021/08/04 04:58:01;;;;;;;18.45;7.53;;;;;;;17.35;83.23;99609.17;1757352;81;20957;-72
2021/08/04 05:00:28;;;;;;;14.87;7.80;;;;;;;17.49;82.70;99611.48;1740642;82;20940;-72
2021/08/04 05:02:54;;;;;;;21.17;7.75;;;;;;;17.62;80.72;99611.61;1740380;82;21063;-73
2021/08/04 05:05:20;;;;;;;28.10;8.00;;;;;;;17.75;79.42;99606.20;1740489;82;20885;-71
2021/08/04 05:07:47;;;;;;;25.57;8.03;;;;;;;17.86;77.83;99603.66;1740543;82;20980;-73
2021/08/04 05:10:14;;;;;;;18.98;6.70;;;;;;;17.98;77.78;99591.59;1740617;82;20884;-73
2021/08/04 05:12:40;;;;;;;13.38;7.20;;;;;;;18.09;78.49;99594.02;1740729;81;20968;-73
2021/08/04 05:15:09;;;;;;;13.65;6.03;;;;;;;18.20;78.48;99598.41;1740796;82;21818;-74
2021/08/04 05:17:35;;;;;;;14.45;6.70;;;;;;;18.31;76.78;99598.84;1740309;82;21048;-73
2021/08/04 05:20:04;;;;;;;17.73;6.37;;;;;;;18.45;77.09;99603.30;1740608;82;21474;-74
2021/08/04 05:22:31;;;;;;;16.35;6.80;;;;;;;18.59;77.65;99601.94;1740837;81;20908;-73
2021/08/04 05:24:57;;;;;;;16.82;7.15;;;;;;;18.73;77.99;99606.42;1740726;82;20948;-73
2021/08/04 05:27:24;;;;;;;20.77;7.87;;;;;;;18.85;76.69;99609.63;1744544;82;21046;-69
2021/08/04 05:29:50;;;;;;;16.82;8.23;;;;;;;18.96;77.50;99605.05;1748119;82;20852;-71
2021/08/04 05:32:16;;;;;;;11.00;6.25;;;;;;;19.07;76.32;99606.82;1748211;82;21480;-69
2021/08/04 05:34:43;;;;;;;15.63;6.90;;;;;;;19.23;75.76;99612.27;1748308;82;21427;-74
2021/08/04 05:37:09;;;;;;;12.98;5.83;;;;;;;19.37;73.93;99608.91;1748561;82;20884;-74
2021/08/04 05:39:37;;;;;;;13.35;5.22;;;;;;;19.49;72.60;99609.30;1748123;81;21151;-74
2021/08/04 05:42:04;;;;;;;11.73;4.85;;;;;;;19.61;71.19;99604.95;1755777;80;20908;-73
2021/08/04 05:44:31;;;;;;;6.10;3.70;;;;;;;19.76;70.43;99611.72;1768031;80;20944;-74
2021/08/04 05:46:58;;;;;;;5.40;3.52;;;;;;;19.90;67.83;99603.36;1748299;81;21450;-73
2021/08/04 05:49:24;;;;;;;8.63;3.40;;;;;;;20.00;67.26;99603.50;1754587;80;20960;-78
2021/08/04 05:51:51;;;;;;;6.70;3.90;;;;;;;20.14;66.61;99600.70;1779073;80;21107;-78
2021/08/04 05:54:19;;;;;;;11.60;3.85;;;;;;;20.27;66.32;99600.05;1779066;80;20920;-79
2021/08/04 05:56:47;;;;;;;5.33;2.72;;;;;;;20.42;64.99;99603.84;1772186;80;21062;-75
2021/08/04 05:59:13;;;;;;;5.40;2.85;;;;;;;20.55;63.65;99603.80;1748074;81;21439;-75
2021/08/04 06:01:40;;;;;;;4.55;2.90;;;;;;;20.71;62.05;99596.61;1761579;80;21412;-74
2021/08/04 06:04:07;;;;;;;8.00;2.47;;;;;;;20.85;60.83;99593.94;1764065;81;21027;-77
2021/08/04 06:06:35;;;;;;;5.47;2.60;;;;;;;20.99;61.08;99592.68;1769777;81;21479;-74
2021/08/04 06:09:01;;;;;;;6.30;2.45;;;;;;;21.14;60.03;99593.61;1769817;81;20877;-75
2021/08/04 06:11:28;;;;;;;6.83;2.40;;;;;;;21.28;59.83;99591.57;1752907;81;20846;-72
2021/08/04 06:13:55;;;;;;;6.40;2.52;;;;;;;21.39;58.46;99592.43;1757866;81;20987;-76
2021/08/04 06:16:23;;;;;;;6.53;2.27;;;;;;;21.52;59.46;99602.70;1748140;81;20892;-78
2021/08/04 06:18:51;;;;;;;5.28;2.45;;;;;;;21.66;56.74;99615.38;1747995;82;20994;-76
2021/08/04 06:21:19;;;;;;;5.75;2.45;;;;;;;21.75;56.60;99609.66;1750800;80;21007;-75
2021/08/04 06:23:48;;;;;;;5.05;2.33;;;;;;;21.85;54.35;99614.31;1771566;80;20998;-74
2021/08/04 06:26:15;;;;;;;2.45;2.08;;;;;;;21.95;54.97;99609.38;1777817;80;20908;-74
2021/08/04 06:28:43;;;;;;;2.05;1.80;;;;;;;22.05;55.77;99603.85;1770353;80;21111;-74
2021/08/04 06:31:10;;;;;;;20.72;4.20;;;;;;;22.20;52.56;99601.92;1770328;81;20931;-75
2021/08/04 06:33:37;;;;;;;8.15;3.15;;;;;;;22.33;52.01;99598.99;1768905;81;20971;-75
2021/08/04 06:36:04;;;;;;;15.23;4.58;;;;;;;22.44;52.68;99601.03;1770473;81;20889;-74
2021/08/04 06:38:30;;;;;;;16.87;3.05;;;;;;;22.52;53.12;99599.86;1770176;80;21031;-75
2021/08/04 06:40:57;;;;;;;16.87;4.05;;;;;;;22.61;51.14;99600.26;1750906;81;21483;-74
2021/08/04 06:43:23;;;;;;;12.60;2.98;;;;;;;22.72;49.83;99594.09;1772731;80;20896;-75
2021/08/04 06:45:51;;;;;;;10.72;3.72;;;;;;;22.82;48.01;99591.95;1770966;81;21027;-75
2021/08/04 06:48:18;;;;;;;19.52;4.20;;;;;;;22.90;46.53;99592.77;1766536;81;21459;-76
2021/08/04 06:50:44;;;;;;;19.65;3.65;;;;;;;22.97;45.86;99596.98;1749171;80;21518;-74
2021/08/04 06:53:11;;;;;;;10.90;2.70;;;;;;;23.04;46.35;99594.19;1770840;81;21089;-75
2021/08/04 06:55:37;;;;;;;4.83;2.05;;;;;;;23.09;44.62;99598.59;1761963;81;20936;-76
2021/08/04 06:58:04;;;;;;;11.85;2.80;;;;;;;23.13;45.04;99601.56;1740034;82;20936;-75
2021/08/04 07:00:32;;;;;;;11.12;3.12;;;;;;;23.22;45.06;99601.17;1740426;82;20979;-75
2021/08/04 07:02:58;;;;;;;8.10;2.60;;;;;;;23.31;43.80;99600.17;1740544;81;20920;-75
2021/08/04 07:05:24;;;;;;;7.62;2.75;;;;;;;23.34;43.07;99596.58;1740508;82;21117;-75
2021/08/04 07:07:51;;;;;;;10.58;2.98;;;;;;;23.34;42.93;99593.17;1740290;82;20920;-75
2021/08/04 07:10:18;;;;;;;10.03;3.98;;;;;;;23.42;43.59;99590.37;1740485;82;21020;-75
2021/08/04 07:12:44;;;;;;;7.45;3.50;;;;;;;23.48;43.91;99590.97;1740079;82;20971;-75
2021/08/04 07:15:11;;;;;;;10.80;3.50;;;;;;;23.59;45.22;99588.98;1740594;82;20884;-75
2021/08/04 07:17:47;;;;;;;11.50;4.12;;;;;;;23.75;46.32;99591.94;1740440;82;21058;-75
2021/08/04 07:20:16;;;;;;;10.23;4.60;;;;;;;23.92;44.88;99598.11;1740456;81;21576;-75
2021/08/04 07:22:44;;;;;;;17.02;4.90;;;;;;;24.10;44.87;99602.27;1740556;82;20920;-76
2021/08/04 07:25:11;;;;;;;22.73;5.78;;;;;;;24.21;44.83;99596.83;1740455;82;20892;-75
2021/08/04 07:27:38;;;;;;;8.85;3.72;;;;;;;24.35;44.65;99598.78;1740488;82;20984;-75
2021/08/04 07:30:10;;;;;;;10.65;4.72;;;;;;;24.49;43.05;99595.11;1740704;81;20916;-75
2021/08/04 07:32:36;;;;;;;18.27;5.80;;;;;;;24.58;42.77;99594.06;1740504;81;20971;-75
2021/08/04 07:35:04;;;;;;;10.08;4.03;;;;;;;24.72;43.17;99594.59;1740321;82;20845;-75
2021/08/04 07:37:31;;;;;;;22.58;5.22;;;;;;;24.87;44.47;99589.05;1740524;82;21443;-74
2021/08/04 07:39:58;;;;;;;6.15;2.62;;;;;;;25.07;44.15;99592.96;1740320;82;20951;-74
2021/08/04 07:42:25;;;;;;;4.25;1.92;;;;;;;25.22;42.39;99581.02;1750026;81;21025;-75
2021/08/04 07:44:53;;;;;;;3.90;2.20;;;;;;;25.28;42.24;99586.38;1743740;81;20924;-74
2021/08/04 07:47:19;;;;;;;5.28;2.52;;;;;;;25.35;43.06;99590.54;1770636;81;20912;-74
2021/08/04 07:49:46;;;;;;;13.85;3.15;;;;;;;25.47;42.14;99592.81;1771080;81;22003;-74
2021/08/04 07:52:14;;;;;;;7.37;2.40;;;;;;;25.55;40.35;99596.36;1771235;81;20971;-74
2021/08/04 07:54:41;;;;;;;7.72;2.45;;;;;;;25.62;40.43;99592.08;1761328;81;21076;-75
2021/08/04 07:57:07;;;;;;;6.37;2.45;;;;;;;25.65;40.39;99587.86;1740501;82;20983;-74
2021/08/04 07:59:34;;;;;;;4.60;2.55;;;;;;;25.68;40.57;99590.44;1740685;81;21475;-74
2021/08/04 08:02:03;;;;;;;3.58;2.47;;;;;;;25.85;39.63;99592.28;1741660;81;20893;-74
2021/08/04 08:04:30;;;;;;;10.25;2.90;;;;;;;26.04;39.67;99586.62;1750509;80;20903;-75
2021/08/04 08:06:59;;;;;;;6.72;1.87;;;;;;;26.31;40.35;99582.52;1754214;81;21048;-75
2021/08/04 08:09:25;;;;;;;3.15;1.95;;;;;;;26.65;39.09;99576.81;1740892;82;20940;-75
2021/08/04 08:11:55;;;;;;;7.12;2.00;;;;;;;26.98;38.49;99575.77;1740629;82;21412;-75
2021/08/04 08:14:23;;;;;;;4.93;1.73;;;;;;;27.20;37.69;99582.63;1741331;81;20933;-75
2021/08/04 08:16:50;;;;;;;2.05;1.85;;;;;;;27.32;38.34;99583.44;1740677;82;20892;-75
2021/08/04 08:19:16;;;;;;;4.47;2.20;;;;;;;27.45;36.21;99577.98;1740793;81;21771;-75
2021/08/04 08:21:43;;;;;;;6.17;1.85;;;;;;;27.52;35.50;99583.50;1740733;81;21486;-75
2021/08/04 08:24:09;;;;;;;5.30;1.70;;;;;;;27.48;35.29;99577.92;1740769;82;21427;-75
2021/08/04 08:26:37;;;;;;;3.02;1.90;;;;;;;27.43;35.92;99583.26;1740669;82;20935;-75
2021/08/04 08:29:05;;;;;;;4.05;2.15;;;;;;;27.39;35.10;99583.31;1746629;82;21014;-75
2021/08/04 08:31:33;;;;;;;2.67;1.92;;;;;;;27.41;35.35;99578.05;1748396;82;21755;-75
2021/08/04 08:34:00;;;;;;;2.65;1.70;;;;;;;27.48;36.40;99568.06;1747941;81;20888;-75
2021/08/04 08:36:28;;;;;;;2.52;1.60;;;;;;;27.67;35.68;99569.98;1748387;81;21453;-75
2021/08/04 08:38:57;;;;;;;4.80;1.65;;;;;;;27.93;35.06;99571.25;1747986;82;20935;-75
2021/08/04 08:41:25;;;;;;;2.98;1.65;;;;;;;28.14;35.45;99570.66;1747869;82;20868;-75
2021/08/04 08:43:52;;;;;;;3.42;2.12;;;;;;;28.33;34.57;99571.88;1748101;81;21116;-75
2021/08/04 08:46:18;;;;;;;3.20;1.60;;;;;;;28.50;34.10;99563.65;1748270;82;20880;-75
2021/08/04 08:48:49;;;;;;;2.05;1.75;;;;;;;28.57;33.90;99563.48;1748256;82;21474;-75
2021/08/04 08:51:17;;;;;;;1.80;1.47;;;;;;;28.62;33.98;99561.56;1747969;82;20987;-75
2021/08/04 08:53:45;;;;;;;2.17;1.72;;;;;;;28.51;32.21;99556.77;1747673;82;20919;-75
2021/08/04 08:56:15;;;;;;;3.87;1.77;;;;;;;28.18;32.32;99553.03;1747969;82;21098;-75
2021/08/04 08:58:42;;;;;;;8.70;2.15;;;;;;;27.95;33.74;99551.87;1748034;81;21469;-75
2021/08/04 09:01:09;;;;;;;3.45;1.75;;;;;;;27.95;34.28;99549.66;1748008;82;21434;-75
2021/08/04 09:03:35;;;;;;;2.35;1.70;;;;;;;27.81;35.02;99551.35;1747997;81;20975;-75
2021/08/04 09:06:04;;;;;;;20.10;2.60;;;;;;;27.60;34.85;99549.75;1748062;82;20927;-75
2021/08/04 09:08:33;;;;;;;5.40;1.90;;;;;;;27.62;36.09;99558.58;1748047;82;21074;-75
2021/08/04 09:11:16;;;;;;;5.97;2.62;;;;;;;27.83;35.19;99551.10;1747939;82;21407;-75
2021/08/04 09:13:45;;;;;;;3.02;1.90;;;;;;;27.94;34.96;99559.36;1739464;82;20988;-76
2021/08/04 09:16:15;;;;;;;3.80;2.10;;;;;;;27.99;34.89;99561.67;1748080;82;21444;-76
2021/08/04 09:18:48;;;;;;;4.03;2.15;;;;;;;28.09;35.61;99557.84;1748121;82;20932;-76
2021/08/04 09:21:18;;;;;;;7.15;2.12;;;;;;;28.35;35.13;99562.36;1748264;81;21818;-75
2021/08/04 09:23:51;;;;;;;3.90;2.27;;;;;;;28.61;34.71;99555.73;1748269;81;20935;-75
2021/08/04 09:26:23;;;;;;;2.37;1.87;;;;;;;28.88;34.69;99554.14;1748007;82;20963;-75
2021/08/04 09:29:03;;;;;;;3.08;2.15;;;;;;;29.04;33.96;99555.53;1743626;82;20935;-75
2021/08/04 09:31:51;;;;;;;5.05;1.77;;;;;;;29.10;34.26;99552.98;1740545;82;20892;-75
2021/08/04 09:34:37;;;;;;;2.62;2.08;;;;;;;29.13;34.83;99550.69;1741578;81;21800;-75
2021/08/04 09:37:07;;;;;;;2.15;1.85;;;;;;;29.09;32.54;99547.15;1740593;81;21594;-75
2021/08/04 09:39:40;;;;;;;4.75;2.05;;;;;;;28.88;31.94;99542.19;1740570;82;21015;-74
2021/08/04 09:42:09;;;;;;;8.53;2.80;;;;;;;28.64;32.19;99548.41;1740685;82;20980;-75
2021/08/04 09:44:53;;;;;;;3.20;1.60;;;;;;;28.13;35.02;99540.22;1741406;81;20995;-75
2021/08/04 09:47:19;;;;;;;2.85;1.85;;;;;;;27.83;34.24;99541.23;1740771;82;21464;-75
2021/08/04 09:49:58;;;;;;;5.55;1.95;;;;;;;27.68;35.48;99540.55;1740489;82;20932;-75
2021/08/04 09:52:26;;;;;;;8.55;2.30;;;;;;;27.61;35.56;99539.45;1740788;82;21011;-75
2021/08/04 09:54:53;;;;;;;6.03;1.80;;;;;;;27.68;36.53;99537.73;1740194;82;20937;-75
2021/08/04 09:57:34;;;;;;;3.20;1.90;;;;;;;27.64;36.64;99536.39;1739067;82;21071;-75
2021/08/04 10:00:07;;;;;;;6.22;1.92;;;;;;;27.52;36.47;99537.78;1695512;82;23322;-75
2021/08/04 10:02:33;;;;;;;5.67;2.08;;;;;;;27.35;35.69;99533.25;1721076;82;20977;-75
2021/08/04 10:05:26;;;;;;;5.35;2.30;;;;;;;27.34;35.67;99543.55;1739642;82;21014;-75
2021/08/04 10:08:12;;;;;;;6.28;1.85;;;;;;;27.39;36.83;99536.80;1739786;81;20948;-75
2021/08/04 10:10:45;;;;;;;3.50;1.72;;;;;;;27.48;36.03;99534.84;1740477;82;21004;-74
2021/08/04 10:13:17;;;;;;;4.45;1.98;;;;;;;27.55;35.81;99538.94;1740745;81;20849;-75
2021/08/04 10:15:50;;;;;;;2.55;1.98;;;;;;;27.53;36.19;99542.19;1740514;82;20881;-75
2021/08/04 10:18:25;;;;;;;3.77;2.00;;;;;;;27.59;36.51;99533.45;1740574;82;20983;-75
2021/08/04 10:21:02;;;;;;;2.67;1.67;;;;;;;27.72;35.90;99535.03;1741555;81;20857;-75
2021/08/04 10:23:30;;;;;;;5.40;1.75;;;;;;;27.80;36.98;99537.86;1728291;81;20932;-75
2021/08/04 10:25:58;;;;;;;2.20;1.72;;;;;;;27.88;35.63;99527.23;1755040;81;21138;-75
2021/08/04 10:28:28;;;;;;;3.33;2.02;;;;;;;27.90;36.12;99529.01;1759913;80;20937;-75
2021/08/04 10:30:56;;;;;;;1.85;1.70;;;;;;;27.81;36.17;99535.84;1754274;81;21542;-75
2021/08/04 10:33:23;;;;;;;2.75;1.90;;;;;;;27.68;36.06;99530.06;1704844;82;20921;-73
2021/08/04 10:35:52;;;;;;;7.40;2.80;;;;;;;27.53;36.94;99528.09;1738626;80;21039;-74
2021/08/04 10:38:22;;;;;;;5.40;2.22;;;;;;;27.35;38.18;99524.80;1756095;79;21127;-73
2021/08/04 10:41:16;;;;;;;2.02;1.80;;;;;;;27.15;37.75;99527.55;1702209;82;20938;-77
2021/08/04 10:43:57;;;;;;;3.85;2.00;;;;;;;26.98;37.42;99525.86;1745454;79;21005;-74
2021/08/04 10:46:32;;;;;;;2.47;1.92;;;;;;;26.91;39.30;99514.67;1749872;79;21059;-73
2021/08/04 10:49:09;;;;;;;5.53;2.45;;;;;;;27.03;37.17;99513.30;1751963;81;20989;-73
2021/08/04 10:51:36;;;;;;;4.05;2.92;;;;;;;27.23;37.56;99509.91;1748403;80;21582;-75
2021/08/04 10:54:17;;;;;;;8.23;2.00;;;;;;;27.54;37.31;99502.11;1750460;81;21012;-74
2021/08/04 10:56:49;;;;;;;7.12;2.08;;;;;;;27.95;36.43;99498.88;1749214;81;21578;-73
2021/08/04 10:59:29;;;;;;;4.45;2.40;;;;;;;28.29;36.87;99506.27;1756330;81;37756;-73
2021/08/04 11:02:07;;;;;;;6.33;1.70;;;;;;;28.31;35.22;99502.39;1763022;80;21484;-73
2021/08/04 11:04:43;;;;;;;6.47;1.77;;;;;;;28.13;36.30;99497.89;1763533;80;20987;-72
2021/08/04 11:07:12;;;;;;;5.10;2.08;;;;;;;28.00;37.18;99502.61;1762961;81;20964;-72
2021/08/04 11:09:50;;;;;;;2.62;2.37;;;;;;;27.86;36.92;99500.88;1762946;80;20960;-71
2021/08/04 11:12:20;;;;;;;2.50;2.27;;;;;;;27.67;35.98;99503.71;1753503;79;21034;-72
2021/08/04 11:15:00;;;;;;;3.85;2.00;;;;;;;27.55;37.42;99496.04;1739227;81;21110;-72
2021/08/04 11:17:30;;;;;;;7.45;2.17;;;;;;;27.55;36.31;99499.47;1752746;81;21149;-73
2021/08/04 11:20:09;;;;;;;5.08;2.35;;;;;;;27.55;36.66;99498.86;1750173;81;20981;-73
2021/08/04 11:22:41;;;;;;;3.70;2.25;;;;;;;27.56;37.12;99510.93;1746478;81;20984;-73
2021/08/04 11:25:13;;;;;;;5.17;2.55;;;;;;;27.43;36.92;99503.72;1751744;81;22135;-73
2021/08/04 11:27:50;;;;;;;2.85;2.02;;;;;;;27.34;38.20;99503.48;1750906;81;21019;-74
2021/08/04 11:30:47;;;;;;;21.87;3.27;;;;;;;27.35;37.71;99504.27;1755604;81;21896;-74
2021/08/04 11:33:26;;;;;;;4.35;2.08;;;;;;;27.22;36.90;99499.25;1698715;83;20936;-74
2021/08/04 11:36:10;;;;;;;3.20;2.17;;;;;;;27.04;37.78;99490.95;1702645;83;20944;-74
2021/08/04 11:38:50;;;;;;;2.47;2.27;;;;;;;26.85;38.80;99496.05;1758061;80;21551;-74
2021/08/04 11:41:35;;;;;;;6.37;2.30;;;;;;;26.70;38.30;99496.70;1751674;81;22145;-73